createdAt,value
2023-05-14T00:00:23.116Z,98768.16
2023-05-14T00:02:50.210Z,98768.28
2023-05-14T00:05:16.928Z,98760.97
2023-05-14T00:07:43.467Z,98770.53
2023-05-14T00:10:10.564Z,98759.94
2023-05-14T00:12:37.174Z,98760.97
2023-05-14T00:15:04.105Z,98763.03
2023-05-14T00:17:31.097Z,98756.69
2023-05-14T00:19:57.769Z,98750.22
2023-05-14T00:22:24.356Z,98752.97
2023-05-14T00:24:50.944Z,98754.66
2023-05-14T00:27:17.676Z,98751.28
2023-05-14T00:29:45.633Z,98748.16
2023-05-14T00:32:12.287Z,98747.28
2023-05-14T00:34:38.876Z,98747.84
2023-05-14T00:37:05.705Z,98745.97
2023-05-14T00:39:32.362Z,98745.34
2023-05-14T00:41:59.166Z,98737.66
2023-05-14T00:44:25.749Z,98742.69
2023-05-14T00:46:53.277Z,98734.81
2023-05-14T00:49:20.263Z,98739.91
2023-05-14T00:51:47.122Z,98735.56
2023-05-14T00:54:17.822Z,98727.41
2023-05-14T00:56:48.173Z,98724.38
2023-05-14T00:59:14.844Z,98720.00
2023-05-14T01:01:41.627Z,98723.44
2023-05-14T01:04:10.541Z,98729.28
2023-05-14T01:06:59.156Z,98730.22
2023-05-14T01:09:36.532Z,98726.00
2023-05-14T01:12:12.393Z,98731.06
2023-05-14T01:15:10.481Z,98732.19
2023-05-14T01:17:46.962Z,98732.28
2023-05-14T01:20:13.940Z,98724.75
2023-05-14T01:22:40.506Z,98727.63
2023-05-14T01:25:07.637Z,98727.19
2023-05-14T01:27:56.481Z,98721.94
2023-05-14T01:30:34.869Z,98724.97
2023-05-14T01:33:13.482Z,98715.59
2023-05-14T01:35:41.377Z,98718.03
2023-05-14T01:38:12.339Z,98724.31
2023-05-14T01:40:39.878Z,98717.69
2023-05-14T01:43:06.682Z,98719.66
2023-05-14T01:45:36.094Z,98722.19
2023-05-14T01:48:02.930Z,98716.53
2023-05-14T01:50:29.558Z,98720.34
2023-05-14T01:52:56.692Z,98726.00
2023-05-14T01:55:26.925Z,98718.19
2023-05-14T01:57:53.763Z,98717.28
2023-05-14T02:00:22.288Z,98721.69
2023-05-14T02:02:49.065Z,98708.81
2023-05-14T02:05:15.831Z,98718.72
2023-05-14T02:07:42.438Z,98704.66
2023-05-14T02:10:09.741Z,98711.94
2023-05-14T02:12:36.405Z,98707.63
2023-05-14T02:15:04.167Z,98707.06
2023-05-14T02:17:30.814Z,98708.06
2023-05-14T02:19:57.547Z,98703.06
2023-05-14T02:22:24.106Z,98699.66
2023-05-14T02:24:51.497Z,98699.59
2023-05-14T02:27:18.493Z,98694.59
2023-05-14T02:29:45.050Z,98696.47
2023-05-14T02:32:11.661Z,98696.47
2023-05-14T02:34:38.746Z,98703.72
2023-05-14T02:37:05.600Z,98698.91
2023-05-14T02:39:32.185Z,98697.03
2023-05-14T02:41:58.779Z,98691.78
2023-05-14T02:44:25.361Z,98685.69
2023-05-14T02:46:51.952Z,98699.72
2023-05-14T02:49:18.625Z,98694.56
2023-05-14T02:51:45.253Z,98691.03
2023-05-14T02:54:11.864Z,98697.13
2023-05-14T02:56:38.539Z,98692.03
2023-05-14T02:59:05.162Z,98686.03
2023-05-14T03:01:31.891Z,98696.69
2023-05-14T03:03:58.962Z,98699.31
2023-05-14T03:06:25.565Z,98697.94
2023-05-14T03:08:52.152Z,98698.78
2023-05-14T03:11:18.836Z,98698.84
2023-05-14T03:13:45.389Z,98692.84
2023-05-14T03:16:12.095Z,98694.72
2023-05-14T03:18:38.717Z,98689.69
2023-05-14T03:21:05.325Z,98690.56
2023-05-14T03:23:34.926Z,98689.00
2023-05-14T03:26:02.331Z,98686.56
2023-05-14T03:28:28.948Z,98687.47
2023-05-14T03:30:55.649Z,98687.41
2023-05-14T03:33:22.828Z,98689.50
2023-05-14T03:35:49.445Z,98683.72
2023-05-14T03:38:16.017Z,98686.25
2023-05-14T03:40:45.346Z,98677.56
2023-05-14T03:43:11.910Z,98682.88
2023-05-14T03:45:38.888Z,98681.19
2023-05-14T03:48:06.154Z,98680.25
2023-05-14T03:50:32.938Z,98681.50
2023-05-14T03:52:59.535Z,98682.50
2023-05-14T03:55:26.120Z,98681.84
2023-05-14T03:57:52.751Z,98677.59
2023-05-14T04:00:19.610Z,98676.81
2023-05-14T04:02:46.362Z,98680.28
2023-05-14T04:05:12.984Z,98676.91
2023-05-14T04:07:39.538Z,98684.75
2023-05-14T04:10:06.885Z,98685.50
2023-05-14T04:12:33.535Z,98685.50
2023-05-14T04:15:00.079Z,98681.38
2023-05-14T04:17:26.908Z,98678.59
2023-05-14T04:19:53.637Z,98682.91
2023-05-14T04:22:20.195Z,98679.34
2023-05-14T04:24:46.818Z,98685.69
2023-05-14T04:27:21.143Z,98682.22
2023-05-14T04:29:48.836Z,98682.28
2023-05-14T04:32:15.445Z,98684.97
2023-05-14T04:34:42.036Z,98686.72
2023-05-14T04:37:09.041Z,98677.00
2023-05-14T04:39:35.779Z,98680.28
2023-05-14T04:42:02.362Z,98679.69
2023-05-14T04:44:28.973Z,98684.22
2023-05-14T04:46:55.630Z,98677.97
2023-05-14T04:49:22.374Z,98676.06
2023-05-14T04:51:49.512Z,98680.16
2023-05-14T04:54:16.137Z,98681.69
2023-05-14T04:56:42.690Z,98673.72
2023-05-14T04:59:09.405Z,98683.72
2023-05-14T05:01:36.254Z,98681.88
2023-05-14T05:04:02.978Z,98679.09
2023-05-14T05:06:29.937Z,98675.47
2023-05-14T05:08:56.552Z,98678.53
2023-05-14T05:11:23.116Z,98678.06
2023-05-14T05:13:50.334Z,98678.34
2023-05-14T05:16:17.079Z,98674.19
2023-05-14T05:18:44.732Z,98674.28
2023-05-14T05:21:11.500Z,98675.41
2023-05-14T05:23:38.131Z,98674.03
2023-05-14T05:26:04.732Z,98672.69
2023-05-14T05:28:31.326Z,98677.25
2023-05-14T05:30:57.895Z,98679.94
2023-05-14T05:33:24.571Z,98677.47
2023-05-14T05:35:52.755Z,98673.28
2023-05-14T05:38:19.361Z,98677.38
2023-05-14T05:40:45.993Z,98677.69
2023-05-14T05:43:14.043Z,98678.72
2023-05-14T05:45:41.564Z,98684.84
2023-05-14T05:48:08.220Z,98679.22
2023-05-14T05:50:35.073Z,98679.50
2023-05-14T05:53:01.930Z,98674.69
2023-05-14T05:55:29.572Z,98682.56
2023-05-14T05:57:56.585Z,98678.97
2023-05-14T06:00:24.001Z,98677.69
2023-05-14T06:02:50.834Z,98680.84
2023-05-14T06:05:17.682Z,98671.53
2023-05-14T06:07:44.397Z,98675.25
2023-05-14T06:10:11.097Z,98684.47
2023-05-14T06:12:37.748Z,98684.56
2023-05-14T06:15:04.790Z,98681.59
2023-05-14T06:17:31.410Z,98681.78
2023-05-14T06:19:58.060Z,98681.66
2023-05-14T06:22:24.669Z,98679.22
2023-05-14T06:24:51.234Z,98684.94
2023-05-14T06:27:17.807Z,98686.47
2023-05-14T06:29:44.553Z,98688.44
2023-05-14T06:32:14.267Z,98681.16
2023-05-14T06:34:42.479Z,98683.25
2023-05-14T06:37:10.027Z,98679.53
2023-05-14T06:39:37.517Z,98688.75
2023-05-14T06:42:04.594Z,98684.09
2023-05-14T06:44:31.332Z,98682.75
2023-05-14T06:46:57.929Z,98678.13
2023-05-14T06:49:24.510Z,98678.34
2023-05-14T06:51:51.107Z,98677.59
2023-05-14T06:54:17.832Z,98665.59
2023-05-14T06:56:44.502Z,98667.63
2023-05-14T06:59:11.070Z,98670.19
2023-05-14T07:01:37.690Z,98674.69
2023-05-14T07:04:04.445Z,98664.03
2023-05-14T07:06:31.077Z,98669.66
2023-05-14T07:08:57.699Z,98670.00
2023-05-14T07:11:24.295Z,98665.56
2023-05-14T07:13:50.927Z,98664.28
2023-05-14T07:16:17.547Z,98661.94
2023-05-14T07:18:45.511Z,98661.38
2023-05-14T07:21:12.501Z,98661.63
2023-05-14T07:23:39.092Z,98656.63
2023-05-14T07:26:06.236Z,98658.97
2023-05-14T07:28:32.948Z,98653.66
2023-05-14T07:30:59.765Z,98650.59
2023-05-14T07:33:26.955Z,98652.34
2023-05-14T07:35:54.220Z,98643.03
2023-05-14T07:38:21.220Z,98645.88
2023-05-14T07:40:47.824Z,98643.22
2023-05-14T07:43:14.469Z,98647.00
2023-05-14T07:45:41.230Z,98639.09
2023-05-14T07:48:08.116Z,98637.16
2023-05-14T07:50:34.792Z,98624.16
2023-05-14T07:53:01.384Z,98624.19
2023-05-14T07:55:28.050Z,98625.56
2023-05-14T07:57:54.669Z,98626.66
2023-05-14T08:00:21.678Z,98625.19
2023-05-14T08:02:49.334Z,98630.28
2023-05-14T08:05:16.663Z,98638.19
2023-05-14T08:07:43.513Z,98631.19
2023-05-14T08:10:10.666Z,98630.00
2023-05-14T08:12:37.367Z,98636.19
2023-05-14T08:15:04.412Z,98633.34
2023-05-14T08:17:31.058Z,98634.53
2023-05-14T08:19:57.721Z,98621.81
2023-05-14T08:22:24.384Z,98627.25
2023-05-14T08:24:51.035Z,98621.25
2023-05-14T08:27:17.669Z,98615.53
2023-05-14T08:29:44.272Z,98620.09
2023-05-14T08:32:22.173Z,98612.72
2023-05-14T08:34:50.806Z,98617.44
2023-05-14T08:37:17.540Z,98621.91
2023-05-14T08:39:44.376Z,98625.25
2023-05-14T08:42:13.084Z,98622.25
2023-05-14T08:44:51.990Z,98623.84
2023-05-14T08:47:22.148Z,98620.84
2023-05-14T08:49:55.073Z,98625.28
2023-05-14T08:52:22.872Z,98625.53
2023-05-14T08:54:51.311Z,98628.34
2023-05-14T08:57:20.236Z,98617.25
2023-05-14T08:59:47.406Z,98622.94
2023-05-14T09:02:16.939Z,98618.97
2023-05-14T09:04:43.861Z,98620.31
2023-05-14T09:07:11.439Z,98623.16
2023-05-14T09:09:38.652Z,98610.66
2023-05-14T09:12:06.677Z,98605.66
2023-05-14T09:14:33.436Z,98599.50
2023-05-14T09:17:00.092Z,98599.63
2023-05-14T09:19:27.063Z,98600.66
2023-05-14T09:21:59.199Z,98600.56
2023-05-14T09:24:29.080Z,98597.25
2023-05-14T09:26:58.750Z,98595.88
2023-05-14T09:29:26.461Z,98588.72
2023-05-14T09:31:53.911Z,98592.78
2023-05-14T09:34:24.624Z,98587.75
2023-05-14T09:36:58.443Z,98584.28
2023-05-14T09:39:25.948Z,98576.94
2023-05-14T09:42:00.399Z,98576.38
2023-05-14T09:44:28.270Z,98581.31
2023-05-14T09:46:55.901Z,98569.94
2023-05-14T09:49:23.115Z,98573.56
2023-05-14T09:51:50.761Z,98573.34
2023-05-14T09:54:17.621Z,98570.38
2023-05-14T09:56:44.629Z,98563.56
2023-05-14T09:59:11.363Z,98562.06
2023-05-14T10:01:38.714Z,98562.41
2023-05-14T10:04:08.228Z,98563.50
2023-05-14T10:06:39.714Z,98570.38
2023-05-14T10:09:12.449Z,98562.50
2023-05-14T10:11:43.799Z,98557.66
2023-05-14T10:14:53.705Z,98554.75
2023-05-14T10:17:23.668Z,98558.56
2023-05-14T10:19:54.513Z,98542.41
2023-05-14T10:22:24.488Z,98566.09
2023-05-14T10:24:52.816Z,98550.84
2023-05-14T10:27:23.657Z,98548.31
2023-05-14T10:29:56.835Z,98545.97
2023-05-14T10:32:25.860Z,98546.66
2023-05-14T10:34:53.848Z,98541.69
2023-05-14T10:37:25.592Z,98549.16
2023-05-14T10:40:00.182Z,98539.63
2023-05-14T10:42:35.966Z,98540.19
2023-05-14T10:45:07.441Z,98542.50
2023-05-14T10:47:48.815Z,98545.69
2023-05-14T10:50:16.223Z,98541.44
2023-05-14T10:52:44.426Z,98544.56
2023-05-14T10:55:14.597Z,98535.91
2023-05-14T10:57:43.797Z,98531.59
2023-05-14T11:00:12.539Z,98531.81
2023-05-14T11:02:41.030Z,98523.41
2023-05-14T11:05:13.832Z,98529.84
2023-05-14T11:07:45.966Z,98525.13
2023-05-14T11:10:21.481Z,98515.66
2023-05-14T11:12:51.015Z,98512.53
2023-05-14T11:15:22.741Z,98506.59
2023-05-14T11:17:50.937Z,98502.97
2023-05-14T11:20:18.303Z,98505.44
2023-05-14T11:22:46.563Z,98506.50
2023-05-14T11:25:14.880Z,98502.97
2023-05-14T11:27:43.867Z,98505.81
2023-05-14T11:30:18.648Z,98492.84
2023-05-14T11:32:47.174Z,98501.38
2023-05-14T11:35:15.187Z,98493.94
2023-05-14T11:37:42.341Z,98490.16
2023-05-14T11:40:14.587Z,98488.81
2023-05-14T11:42:41.880Z,98488.13
2023-05-14T11:45:12.353Z,98492.25
2023-05-14T11:47:40.685Z,98481.94
2023-05-14T11:50:21.586Z,98474.22
2023-05-14T11:52:50.820Z,98483.78
2023-05-14T11:55:17.866Z,98469.06
2023-05-14T11:57:44.679Z,98468.78
2023-05-14T12:00:21.557Z,98466.81
2023-05-14T12:02:49.953Z,98462.78
2023-05-14T12:05:16.978Z,98458.59
2023-05-14T12:07:47.528Z,98454.72
2023-05-14T12:10:14.183Z,98451.53
2023-05-14T12:12:41.011Z,98456.81
2023-05-14T12:15:14.851Z,98453.97
2023-05-14T12:17:42.030Z,98455.19
2023-05-14T12:20:11.063Z,98452.78
2023-05-14T12:22:38.451Z,98445.28
2023-05-14T12:25:11.229Z,98441.13
2023-05-14T12:27:37.915Z,98441.59
2023-05-14T12:30:20.755Z,98439.19
2023-05-14T12:32:53.011Z,98446.47
2023-05-14T12:35:21.564Z,98453.34
2023-05-14T12:37:48.254Z,98451.41
2023-05-14T12:40:14.902Z,98472.22
2023-05-14T12:42:41.676Z,98490.00
2023-05-14T12:45:08.739Z,98459.88
2023-05-14T12:47:36.861Z,98459.56
2023-05-14T12:50:04.751Z,98457.09
2023-05-14T12:55:01.498Z,98443.69
2023-05-14T12:57:29.755Z,98441.50
2023-05-14T12:59:57.319Z,98436.28
2023-05-14T13:02:24.003Z,98433.13
2023-05-14T13:04:51.068Z,98431.81
2023-05-14T13:07:17.655Z,98442.03
2023-05-14T13:09:44.308Z,98444.66
2023-05-14T13:12:11.007Z,98447.28
2023-05-14T13:14:37.611Z,98440.25
2023-05-14T13:17:05.195Z,98431.34
2023-05-14T13:19:31.961Z,98434.84
2023-05-14T13:21:58.520Z,98429.63
2023-05-14T13:24:25.236Z,98435.38
2023-05-14T13:26:52.004Z,98426.53
2023-05-14T13:29:18.646Z,98431.31
2023-05-14T13:31:45.325Z,98417.81
2023-05-14T13:34:13.176Z,98417.06
2023-05-14T13:36:41.249Z,98411.13
2023-05-14T13:39:08.190Z,98405.94
2023-05-14T13:41:35.807Z,98408.09
2023-05-14T13:44:02.353Z,98403.47
2023-05-14T13:46:29.296Z,98399.88
2023-05-14T13:48:56.029Z,98402.31
2023-05-14T13:51:23.316Z,98391.66
2023-05-14T13:53:50.895Z,98386.88
2023-05-14T13:56:17.606Z,98390.63
2023-05-14T13:58:44.219Z,98396.16
2023-05-14T14:01:10.862Z,98389.06
2023-05-14T14:03:37.539Z,98386.03
2023-05-14T14:06:04.279Z,98377.78
2023-05-14T14:08:31.208Z,98365.78
2023-05-14T14:10:58.299Z,98369.16
2023-05-14T14:13:25.094Z,98352.56
2023-05-14T14:15:51.770Z,98353.06
2023-05-14T14:18:18.652Z,98351.19
2023-05-14T14:20:45.381Z,98360.34
2023-05-14T14:23:12.010Z,98355.38
2023-05-14T14:25:38.689Z,98360.63
2023-05-14T14:28:05.449Z,98362.63
2023-05-14T14:30:32.881Z,98353.41
2023-05-14T14:33:01.312Z,98347.81
2023-05-14T14:35:28.037Z,98334.81
2023-05-14T14:37:55.694Z,98329.84
2023-05-14T14:40:24.066Z,98328.38
2023-05-14T14:42:50.802Z,98323.59
2023-05-14T14:45:17.914Z,98321.72
2023-05-14T14:47:46.597Z,98317.06
2023-05-14T14:50:13.731Z,98338.53
2023-05-14T14:52:45.513Z,98334.03
2023-05-14T14:55:12.791Z,98326.41
2023-05-14T14:57:39.766Z,98330.88
2023-05-14T15:00:07.321Z,98345.47
2023-05-14T15:02:34.558Z,98344.47
2023-05-14T15:05:01.454Z,98340.75
2023-05-14T15:07:29.625Z,98338.94
2023-05-14T15:09:56.355Z,98336.75
2023-05-14T15:12:22.991Z,98335.59
2023-05-14T15:14:49.585Z,98336.44
2023-05-14T15:17:16.344Z,98338.59
2023-05-14T15:19:43.037Z,98339.75
2023-05-14T15:22:09.730Z,98344.94
2023-05-14T15:24:36.464Z,98333.59
2023-05-14T15:27:03.179Z,98332.91
2023-05-14T15:29:29.905Z,98336.75
2023-05-14T15:31:56.841Z,98338.25
2023-05-14T15:34:23.551Z,98333.94
2023-05-14T15:36:50.536Z,98330.84
2023-05-14T15:39:17.258Z,98321.00
2023-05-14T15:41:44.063Z,98316.78
2023-05-14T15:44:10.712Z,98321.81
2023-05-14T15:46:38.053Z,98329.25
2023-05-14T15:49:04.761Z,98321.22
2023-05-14T15:51:32.109Z,98322.25
2023-05-14T15:53:59.026Z,98317.22
2023-05-14T15:56:25.887Z,98315.25
2023-05-14T15:58:52.565Z,98312.00
2023-05-14T16:01:19.708Z,98324.44
2023-05-14T16:03:46.485Z,98335.53
2023-05-14T16:06:14.593Z,98336.41
2023-05-14T16:08:41.192Z,98340.44
2023-05-14T16:11:07.807Z,98340.47
2023-05-14T16:13:35.768Z,98347.13
2023-05-14T16:16:02.508Z,98347.22
2023-05-14T16:18:29.626Z,98335.88
2023-05-14T16:20:56.546Z,98359.63
2023-05-14T16:23:23.145Z,98368.63
2023-05-14T16:25:50.114Z,98382.34
2023-05-14T16:28:16.950Z,98399.50
2023-05-14T16:30:43.552Z,98401.78
2023-05-14T16:33:10.526Z,98400.91
2023-05-14T16:35:37.289Z,98403.00
2023-05-14T16:38:04.158Z,98387.03
2023-05-14T16:40:30.716Z,98378.22
2023-05-14T16:42:57.348Z,98378.47
2023-05-14T16:45:24.179Z,98375.13
2023-05-14T16:47:51.753Z,98361.56
2023-05-14T16:50:18.349Z,98366.63
2023-05-14T16:52:44.961Z,98362.00
2023-05-14T16:55:11.615Z,98349.69
2023-05-14T16:57:38.279Z,98350.53
2023-05-14T17:00:06.238Z,98362.22
2023-05-14T17:02:33.728Z,98365.91
2023-05-14T17:05:00.564Z,98366.19
2023-05-14T17:07:27.512Z,98372.72
2023-05-14T17:09:54.193Z,98381.13
2023-05-14T17:12:20.827Z,98373.13
2023-05-14T17:14:47.455Z,98374.81
2023-05-14T17:17:14.016Z,98371.16
2023-05-14T17:19:40.806Z,98377.31
2023-05-14T17:22:07.382Z,98378.47
2023-05-14T17:24:35.465Z,98379.72
2023-05-14T17:27:02.151Z,98392.06
2023-05-14T17:29:28.802Z,98391.41
2023-05-14T17:32:03.570Z,98389.91
2023-05-14T17:34:30.589Z,98395.59
2023-05-14T17:36:57.388Z,98389.84
2023-05-14T17:39:24.059Z,98398.81
2023-05-14T17:41:50.657Z,98395.75
2023-05-14T17:44:17.220Z,98393.09
2023-05-14T17:46:44.920Z,98384.84
2023-05-14T17:49:12.067Z,98394.19
2023-05-14T17:51:38.634Z,98396.03
2023-05-14T17:54:05.258Z,98391.94
2023-05-14T17:56:32.092Z,98400.47
2023-05-14T17:58:58.707Z,98395.31
2023-05-14T18:01:25.405Z,98395.03
2023-05-14T18:03:52.505Z,98402.53
2023-05-14T18:06:19.205Z,98407.16
2023-05-14T18:08:45.831Z,98407.72
2023-05-14T18:11:12.460Z,98403.81
2023-05-14T18:13:39.088Z,98408.00
2023-05-14T18:16:05.743Z,98415.25
2023-05-14T18:18:32.504Z,98406.00
2023-05-14T18:20:59.580Z,98411.00
2023-05-14T18:23:26.219Z,98411.41
2023-05-14T18:25:52.864Z,98412.94
2023-05-14T18:28:21.408Z,98412.25
2023-05-14T18:30:51.094Z,98410.97
2023-05-14T18:33:18.174Z,98403.72
2023-05-14T18:35:44.858Z,98403.72
2023-05-14T18:38:13.776Z,98409.16
2023-05-14T18:40:40.561Z,98401.88
2023-05-14T18:43:07.333Z,98397.44
2023-05-14T18:45:34.010Z,98411.53
2023-05-14T18:48:01.149Z,98411.53
2023-05-14T18:50:27.828Z,98408.16
2023-05-14T18:52:54.486Z,98411.09
2023-05-14T18:55:21.184Z,98419.88
2023-05-14T18:57:47.906Z,98420.81
2023-05-14T19:00:15.074Z,98427.06
2023-05-14T19:02:41.952Z,98426.13
2023-05-14T19:05:09.015Z,98427.81
2023-05-14T19:07:37.198Z,98430.69
2023-05-14T19:10:04.762Z,98436.66
2023-05-14T19:12:31.868Z,98436.09
2023-05-14T19:14:58.482Z,98444.81
2023-05-14T19:17:25.623Z,98452.31
2023-05-14T19:19:52.296Z,98452.06
2023-05-14T19:22:19.558Z,98455.94
2023-05-14T19:24:46.291Z,98448.50
2023-05-14T19:27:16.253Z,98449.88
2023-05-14T19:29:43.786Z,98451.81
2023-05-14T19:32:10.934Z,98452.78
2023-05-14T19:34:37.534Z,98449.56
2023-05-14T19:37:05.188Z,98450.91
2023-05-14T19:39:31.892Z,98451.69
2023-05-14T19:41:58.542Z,98462.41
2023-05-14T19:44:25.177Z,98460.25
2023-05-14T19:46:51.969Z,98464.03
2023-05-14T19:49:18.628Z,98482.63
2023-05-14T19:51:45.272Z,98485.72
2023-05-14T19:54:11.872Z,98484.75
2023-05-14T19:56:38.660Z,98482.69
2023-05-14T19:59:05.286Z,98483.78
2023-05-14T20:01:32.494Z,98484.75
2023-05-14T20:03:59.278Z,98480.19
2023-05-14T20:06:25.932Z,98480.91
2023-05-14T20:08:52.601Z,98475.25
2023-05-14T20:11:19.685Z,98474.53
2023-05-14T20:13:46.328Z,98468.16
2023-05-14T20:16:16.649Z,98472.72
2023-05-14T20:18:44.089Z,98463.59
2023-05-14T20:21:10.958Z,98461.66
2023-05-14T20:23:37.671Z,98466.81
2023-05-14T20:26:06.957Z,98460.81
2023-05-14T20:28:38.148Z,98463.59
2023-05-14T20:31:08.269Z,98457.59
2023-05-14T20:33:38.071Z,98450.00
2023-05-14T20:36:12.283Z,98446.16
2023-05-14T20:38:41.580Z,98456.28
2023-05-14T20:41:13.425Z,98448.44
2023-05-14T20:43:43.462Z,98448.00
2023-05-14T20:46:12.368Z,98451.00
2023-05-14T20:48:47.052Z,98431.41
2023-05-14T20:51:16.893Z,98435.97
2023-05-14T20:53:43.918Z,98431.41
2023-05-14T20:56:14.368Z,98429.38
2023-05-14T20:58:41.293Z,98422.66
2023-05-14T21:01:08.347Z,98423.97
2023-05-14T21:03:36.074Z,98425.06
2023-05-14T21:06:05.919Z,98428.41
2023-05-14T21:08:40.645Z,98425.19
2023-05-14T21:11:07.910Z,98414.00
2023-05-14T21:13:34.951Z,98425.19
2023-05-14T21:16:11.311Z,98418.09
2023-05-14T21:18:41.358Z,98418.94
2023-05-14T21:21:08.373Z,98415.94
2023-05-14T21:23:37.166Z,98409.34
2023-05-14T21:26:06.967Z,98414.88
2023-05-14T21:28:39.651Z,98412.94
2023-05-14T21:31:15.011Z,98418.22
2023-05-14T21:33:42.583Z,98412.81
2023-05-14T21:36:10.218Z,98410.88
2023-05-14T21:38:37.464Z,98411.63
2023-05-14T21:41:09.217Z,98413.28
2023-05-14T21:43:42.628Z,98415.84
2023-05-14T21:46:15.000Z,98412.59
2023-05-14T21:48:50.560Z,98409.56
2023-05-14T21:51:31.101Z,98416.66
2023-05-14T21:54:04.404Z,98405.84
2023-05-14T21:56:42.699Z,98407.44
2023-05-14T21:59:13.839Z,98415.34
2023-05-14T22:02:05.374Z,98410.19
2023-05-14T22:04:33.234Z,98407.28
2023-05-14T22:07:08.578Z,98415.47
2023-05-14T22:09:41.368Z,98416.06
2023-05-14T22:12:22.761Z,98414.84
2023-05-14T22:14:49.372Z,98412.47
2023-05-14T22:17:16.142Z,98410.78
2023-05-14T22:19:42.726Z,98409.09
2023-05-14T22:22:09.301Z,98409.19
2023-05-14T22:24:35.914Z,98419.53
2023-05-14T22:27:02.458Z,98412.22
2023-05-14T22:29:28.983Z,98417.13
2023-05-14T22:31:55.714Z,98410.16
2023-05-14T22:34:22.499Z,98405.22
2023-05-14T22:36:49.065Z,98410.97
2023-05-14T22:39:15.689Z,98415.03
2023-05-14T22:41:42.269Z,98411.81
2023-05-14T22:44:08.814Z,98416.56
2023-05-14T22:46:35.696Z,98415.03
2023-05-14T22:49:02.263Z,98414.06
2023-05-14T22:51:28.934Z,98410.47
2023-05-14T22:53:55.688Z,98398.75
2023-05-14T22:56:22.348Z,98402.00
2023-05-14T22:58:48.989Z,98399.00
2023-05-14T23:01:15.872Z,98403.56
2023-05-14T23:03:42.454Z,98404.16
2023-05-14T23:06:09.062Z,98398.75
2023-05-14T23:08:35.874Z,98394.03
2023-05-14T23:11:02.457Z,98395.13
2023-05-14T23:13:29.059Z,98391.25
2023-05-14T23:15:57.275Z,98392.78
2023-05-14T23:18:26.239Z,98390.84
2023-05-14T23:20:53.459Z,98397.25
2023-05-14T23:23:20.227Z,98387.38
2023-05-14T23:25:49.165Z,98393.97
2023-05-14T23:28:16.625Z,98386.03
2023-05-14T23:30:46.353Z,98387.22
2023-05-14T23:33:12.977Z,98390.75
2023-05-14T23:35:39.969Z,98392.13
2023-05-14T23:38:07.402Z,98387.19
2023-05-14T23:40:34.146Z,98384.94
2023-05-14T23:43:01.184Z,98379.88
2023-05-14T23:45:28.118Z,98379.97
2023-05-14T23:47:57.185Z,98384.63
2023-05-14T23:50:24.413Z,98375.41
2023-05-14T23:52:52.261Z,98371.91
2023-05-14T23:55:19.446Z,98370.00
2023-05-14T23:57:46.183Z,98373.81
